sensor_id;sensor_type;location;lat;lon;timestamp;P1;durP1;ratioP1;P2;durP2;ratioP2
36787;SDS011;22738;45.560;9.434;2022-08-03T00:02:40;4.72;;;2.70;;
36787;SDS011;22738;45.560;9.434;2022-08-03T00:09:21;5.93;;;3.13;;
36787;SDS011;22738;45.560;9.434;2022-08-03T00:16:02;7.75;;;3.17;;
36787;SDS011;22738;45.560;9.434;2022-08-03T00:22:44;8.07;;;3.00;;
36787;SDS011;22738;45.560;9.434;2022-08-03T00:29:25;5.45;;;2.80;;
36787;SDS011;22738;45.560;9.434;2022-08-03T00:36:06;4.55;;;2.50;;
36787;SDS011;22738;45.560;9.434;2022-08-03T00:42:51;3.38;;;2.35;;
36787;SDS011;22738;45.560;9.434;2022-08-03T00:49:33;4.90;;;3.20;;
36787;SDS011;22738;45.560;9.434;2022-08-03T00:56:15;8.38;;;3.53;;
36787;SDS011;22738;45.560;9.434;2022-08-03T01:02:56;4.82;;;2.78;;
36787;SDS011;22738;45.560;9.434;2022-08-03T01:16:36;4.38;;;2.80;;
36787;SDS011;22738;45.560;9.434;2022-08-03T01:23:48;7.30;;;3.30;;
36787;SDS011;22738;45.560;9.434;2022-08-03T01:30:36;5.50;;;3.15;;
36787;SDS011;22738;45.560;9.434;2022-08-03T01:37:47;6.70;;;3.35;;
36787;SDS011;22738;45.560;9.434;2022-08-03T01:44:33;7.93;;;3.90;;
36787;SDS011;22738;45.560;9.434;2022-08-03T01:51:17;6.72;;;4.00;;
36787;SDS011;22738;45.560;9.434;2022-08-03T01:58:00;5.35;;;3.63;;
36787;SDS011;22738;45.560;9.434;2022-08-03T02:04:42;3.90;;;3.07;;
36787;SDS011;22738;45.560;9.434;2022-08-03T02:11:26;6.13;;;4.53;;
36787;SDS011;22738;45.560;9.434;2022-08-03T02:18:11;7.88;;;3.80;;
36787;SDS011;22738;45.560;9.434;2022-08-03T02:24:53;8.98;;;4.28;;
36787;SDS011;22738;45.560;9.434;2022-08-03T02:31:34;9.00;;;3.70;;
36787;SDS011;22738;45.560;9.434;2022-08-03T02:38:18;5.35;;;3.70;;
36787;SDS011;22738;45.560;9.434;2022-08-03T02:45:02;5.38;;;3.45;;
36787;SDS011;22738;45.560;9.434;2022-08-03T02:51:48;6.55;;;3.70;;
36787;SDS011;22738;45.560;9.434;2022-08-03T02:58:31;5.90;;;4.22;;
36787;SDS011;22738;45.560;9.434;2022-08-03T03:05:14;7.05;;;3.78;;
36787;SDS011;22738;45.560;9.434;2022-08-03T03:11:55;5.63;;;4.20;;
36787;SDS011;22738;45.560;9.434;2022-08-03T03:18:37;5.55;;;3.70;;
36787;SDS011;22738;45.560;9.434;2022-08-03T03:25:19;6.43;;;3.92;;
36787;SDS011;22738;45.560;9.434;2022-08-03T03:32:03;10.57;;;4.40;;
36787;SDS011;22738;45.560;9.434;2022-08-03T03:38:44;6.03;;;3.95;;
36787;SDS011;22738;45.560;9.434;2022-08-03T03:45:25;5.13;;;3.67;;
36787;SDS011;22738;45.560;9.434;2022-08-03T03:52:07;6.25;;;3.08;;
36787;SDS011;22738;45.560;9.434;2022-08-03T03:58:48;4.15;;;3.15;;
36787;SDS011;22738;45.560;9.434;2022-08-03T04:05:29;5.85;;;3.97;;
36787;SDS011;22738;45.560;9.434;2022-08-03T04:12:29;11.07;;;4.90;;
36787;SDS011;22738;45.560;9.434;2022-08-03T04:19:34;10.57;;;4.32;;
36787;SDS011;22738;45.560;9.434;2022-08-03T04:26:17;7.80;;;3.77;;
36787;SDS011;22738;45.560;9.434;2022-08-03T04:33:00;6.63;;;4.00;;
36787;SDS011;22738;45.560;9.434;2022-08-03T04:39:42;7.15;;;4.10;;
36787;SDS011;22738;45.560;9.434;2022-08-03T04:46:28;7.88;;;4.45;;
36787;SDS011;22738;45.560;9.434;2022-08-03T04:53:12;9.35;;;4.30;;
36787;SDS011;22738;45.560;9.434;2022-08-03T04:59:53;8.10;;;3.70;;
36787;SDS011;22738;45.560;9.434;2022-08-03T05:06:36;5.93;;;3.55;;
36787;SDS011;22738;45.560;9.434;2022-08-03T05:13:17;9.02;;;3.75;;
36787;SDS011;22738;45.560;9.434;2022-08-03T05:19:58;18.58;;;4.30;;
36787;SDS011;22738;45.560;9.434;2022-08-03T05:26:40;8.18;;;4.05;;
36787;SDS011;22738;45.560;9.434;2022-08-03T05:33:21;8.85;;;3.47;;
36787;SDS011;22738;45.560;9.434;2022-08-03T05:40:03;7.93;;;3.80;;
36787;SDS011;22738;45.560;9.434;2022-08-03T05:46:45;7.57;;;4.10;;
36787;SDS011;22738;45.560;9.434;2022-08-03T05:53:27;5.32;;;3.53;;
36787;SDS011;22738;45.560;9.434;2022-08-03T06:00:09;5.13;;;3.40;;
36787;SDS011;22738;45.560;9.434;2022-08-03T06:06:54;5.28;;;3.03;;
36787;SDS011;22738;45.560;9.434;2022-08-03T06:13:35;18.02;;;3.78;;
36787;SDS011;22738;45.560;9.434;2022-08-03T06:20:17;7.35;;;2.70;;
36787;SDS011;22738;45.560;9.434;2022-08-03T06:26:59;6.75;;;2.65;;
36787;SDS011;22738;45.560;9.434;2022-08-03T06:33:40;10.18;;;2.83;;
36787;SDS011;22738;45.560;9.434;2022-08-03T06:40:22;5.82;;;2.50;;
36787;SDS011;22738;45.560;9.434;2022-08-03T06:47:10;9.45;;;2.90;;
36787;SDS011;22738;45.560;9.434;2022-08-03T06:53:51;4.43;;;1.88;;
36787;SDS011;22738;45.560;9.434;2022-08-03T07:00:33;7.57;;;1.90;;
36787;SDS011;22738;45.560;9.434;2022-08-03T07:07:14;6.75;;;2.08;;
36787;SDS011;22738;45.560;9.434;2022-08-03T07:13:55;3.22;;;1.80;;
36787;SDS011;22738;45.560;9.434;2022-08-03T07:20:36;2.70;;;1.80;;
36787;SDS011;22738;45.560;9.434;2022-08-03T07:27:17;3.10;;;1.70;;
36787;SDS011;22738;45.560;9.434;2022-08-03T07:33:58;7.28;;;1.90;;
36787;SDS011;22738;45.560;9.434;2022-08-03T07:40:39;5.97;;;2.10;;
36787;SDS011;22738;45.560;9.434;2022-08-03T07:47:22;7.55;;;1.58;;
36787;SDS011;22738;45.560;9.434;2022-08-03T07:54:05;4.40;;;1.50;;
36787;SDS011;22738;45.560;9.434;2022-08-03T08:00:47;5.78;;;1.70;;
36787;SDS011;22738;45.560;9.434;2022-08-03T08:07:28;5.85;;;2.05;;
36787;SDS011;22738;45.560;9.434;2022-08-03T08:14:10;8.82;;;2.35;;
36787;SDS011;22738;45.560;9.434;2022-08-03T08:20:53;8.90;;;2.63;;
36787;SDS011;22738;45.560;9.434;2022-08-03T08:27:40;4.40;;;2.00;;
36787;SDS011;22738;45.560;9.434;2022-08-03T08:34:25;8.10;;;2.17;;
36787;SDS011;22738;45.560;9.434;2022-08-03T08:41:06;6.80;;;2.28;;
36787;SDS011;22738;45.560;9.434;2022-08-03T08:47:48;5.37;;;1.83;;
36787;SDS011;22738;45.560;9.434;2022-08-03T08:54:29;10.37;;;2.80;;
36787;SDS011;22738;45.560;9.434;2022-08-03T09:01:12;5.38;;;1.90;;
36787;SDS011;22738;45.560;9.434;2022-08-03T09:07:54;5.97;;;2.28;;
36787;SDS011;22738;45.560;9.434;2022-08-03T09:14:35;7.05;;;2.20;;
36787;SDS011;22738;45.560;9.434;2022-08-03T09:21:19;4.75;;;2.20;;
36787;SDS011;22738;45.560;9.434;2022-08-03T09:34:47;3.83;;;2.03;;
36787;SDS011;22738;45.560;9.434;2022-08-03T09:48:27;2.63;;;1.60;;
36787;SDS011;22738;45.560;9.434;2022-08-03T09:55:10;3.70;;;1.77;;
36787;SDS011;22738;45.560;9.434;2022-08-03T10:01:54;6.35;;;1.90;;
36787;SDS011;22738;45.560;9.434;2022-08-03T10:08:37;3.80;;;2.03;;
36787;SDS011;22738;45.560;9.434;2022-08-03T10:15:18;6.53;;;2.70;;
36787;SDS011;22738;45.560;9.434;2022-08-03T10:22:03;3.47;;;1.80;;
36787;SDS011;22738;45.560;9.434;2022-08-03T10:28:52;2.50;;;1.83;;
36787;SDS011;22738;45.560;9.434;2022-08-03T10:42:16;2.28;;;1.48;;
36787;SDS011;22738;45.560;9.434;2022-08-03T10:48:57;3.53;;;1.88;;
36787;SDS011;22738;45.560;9.434;2022-08-03T10:55:40;3.93;;;1.93;;
36787;SDS011;22738;45.560;9.434;2022-08-03T11:09:50;2.63;;;1.85;;
36787;SDS011;22738;45.560;9.434;2022-08-03T11:23:17;2.30;;;1.60;;
36787;SDS011;22738;45.560;9.434;2022-08-03T11:37:19;6.13;;;2.13;;
36787;SDS011;22738;45.560;9.434;2022-08-03T11:44:02;5.22;;;2.50;;
36787;SDS011;22738;45.560;9.434;2022-08-03T11:50:43;3.55;;;2.17;;
36787;SDS011;22738;45.560;9.434;2022-08-03T11:57:32;3.67;;;1.90;;
36787;SDS011;22738;45.560;9.434;2022-08-03T12:04:15;6.68;;;1.88;;
36787;SDS011;22738;45.560;9.434;2022-08-03T12:10:58;4.32;;;1.98;;
36787;SDS011;22738;45.560;9.434;2022-08-03T12:17:41;4.38;;;2.47;;
36787;SDS011;22738;45.560;9.434;2022-08-03T12:24:22;3.83;;;1.90;;
36787;SDS011;22738;45.560;9.434;2022-08-03T12:31:07;2.70;;;1.77;;
36787;SDS011;22738;45.560;9.434;2022-08-03T12:37:50;2.40;;;1.98;;
36787;SDS011;22738;45.560;9.434;2022-08-03T12:44:32;3.07;;;1.93;;
36787;SDS011;22738;45.560;9.434;2022-08-03T12:51:17;3.00;;;2.20;;
36787;SDS011;22738;45.560;9.434;2022-08-03T12:57:58;1.90;;;1.75;;
36787;SDS011;22738;45.560;9.434;2022-08-03T13:04:40;2.90;;;1.90;;
36787;SDS011;22738;45.560;9.434;2022-08-03T13:11:22;8.45;;;2.47;;
36787;SDS011;22738;45.560;9.434;2022-08-03T13:18:04;3.30;;;1.75;;
36787;SDS011;22738;45.560;9.434;2022-08-03T13:24:49;3.83;;;1.85;;
36787;SDS011;22738;45.560;9.434;2022-08-03T13:31:31;9.43;;;1.98;;
36787;SDS011;22738;45.560;9.434;2022-08-03T13:38:13;3.63;;;2.03;;
36787;SDS011;22738;45.560;9.434;2022-08-03T13:44:54;7.83;;;2.10;;
36787;SDS011;22738;45.560;9.434;2022-08-03T13:51:37;3.22;;;1.88;;
36787;SDS011;22738;45.560;9.434;2022-08-03T13:58:19;8.87;;;2.00;;
36787;SDS011;22738;45.560;9.434;2022-08-03T14:05:00;5.88;;;1.63;;
36787;SDS011;22738;45.560;9.434;2022-08-03T14:11:42;3.35;;;1.80;;
36787;SDS011;22738;45.560;9.434;2022-08-03T14:18:24;2.08;;;1.73;;
36787;SDS011;22738;45.560;9.434;2022-08-03T14:25:05;9.93;;;2.13;;
36787;SDS011;22738;45.560;9.434;2022-08-03T14:31:46;5.18;;;1.90;;
36787;SDS011;22738;45.560;9.434;2022-08-03T14:38:27;3.22;;;1.80;;
36787;SDS011;22738;45.560;9.434;2022-08-03T14:45:09;2.33;;;1.92;;
36787;SDS011;22738;45.560;9.434;2022-08-03T14:52:13;2.40;;;1.98;;
36787;SDS011;22738;45.560;9.434;2022-08-03T14:58:54;5.00;;;2.10;;
36787;SDS011;22738;45.560;9.434;2022-08-03T15:05:35;5.07;;;1.90;;
36787;SDS011;22738;45.560;9.434;2022-08-03T15:12:17;4.60;;;1.92;;
36787;SDS011;22738;45.560;9.434;2022-08-03T15:19:00;3.90;;;2.00;;
36787;SDS011;22738;45.560;9.434;2022-08-03T15:25:42;8.43;;;2.20;;
36787;SDS011;22738;45.560;9.434;2022-08-03T15:32:24;6.53;;;1.80;;
36787;SDS011;22738;45.560;9.434;2022-08-03T15:39:05;4.80;;;2.22;;
36787;SDS011;22738;45.560;9.434;2022-08-03T15:45:46;3.63;;;2.40;;
36787;SDS011;22738;45.560;9.434;2022-08-03T15:52:27;4.95;;;1.80;;
36787;SDS011;22738;45.560;9.434;2022-08-03T15:59:08;5.60;;;2.13;;
36787;SDS011;22738;45.560;9.434;2022-08-03T16:05:49;4.47;;;1.80;;
36787;SDS011;22738;45.560;9.434;2022-08-03T16:12:30;5.32;;;2.20;;
36787;SDS011;22738;45.560;9.434;2022-08-03T16:19:11;3.60;;;1.77;;
36787;SDS011;22738;45.560;9.434;2022-08-03T16:25:53;2.78;;;1.90;;
36787;SDS011;22738;45.560;9.434;2022-08-03T16:32:35;1.88;;;1.70;;
36787;SDS011;22738;45.560;9.434;2022-08-03T16:39:17;3.88;;;2.08;;
36787;SDS011;22738;45.560;9.434;2022-08-03T16:45:58;3.13;;;2.00;;
36787;SDS011;22738;45.560;9.434;2022-08-03T16:52:40;3.47;;;1.85;;
36787;SDS011;22738;45.560;9.434;2022-08-03T16:59:21;4.18;;;1.90;;
36787;SDS011;22738;45.560;9.434;2022-08-03T17:06:02;4.57;;;1.98;;
36787;SDS011;22738;45.560;9.434;2022-08-03T17:12:43;4.55;;;2.15;;
36787;SDS011;22738;45.560;9.434;2022-08-03T17:19:24;7.82;;;2.50;;
36787;SDS011;22738;45.560;9.434;2022-08-03T17:26:07;2.07;;;1.33;;
36787;SDS011;22738;45.560;9.434;2022-08-03T17:32:53;3.63;;;1.23;;
36787;SDS011;22738;45.560;9.434;2022-08-03T17:39:34;1.95;;;1.23;;
36787;SDS011;22738;45.560;9.434;2022-08-03T17:46:16;1.83;;;1.20;;
36787;SDS011;22738;45.560;9.434;2022-08-03T17:53:03;2.30;;;1.10;;
36787;SDS011;22738;45.560;9.434;2022-08-03T17:59:53;3.08;;;1.20;;
36787;SDS011;22738;45.560;9.434;2022-08-03T18:07:02;3.50;;;1.73;;
36787;SDS011;22738;45.560;9.434;2022-08-03T18:14:05;3.03;;;1.35;;
36787;SDS011;22738;45.560;9.434;2022-08-03T18:20:59;3.40;;;1.20;;
36787;SDS011;22738;45.560;9.434;2022-08-03T18:27:41;4.00;;;1.30;;
36787;SDS011;22738;45.560;9.434;2022-08-03T18:34:23;2.42;;;1.55;;
36787;SDS011;22738;45.560;9.434;2022-08-03T18:41:06;2.08;;;1.60;;
36787;SDS011;22738;45.560;9.434;2022-08-03T19:02:04;2.83;;;1.55;;
36787;SDS011;22738;45.560;9.434;2022-08-03T19:09:05;2.70;;;1.55;;
36787;SDS011;22738;45.560;9.434;2022-08-03T19:15:53;3.95;;;1.83;;
36787;SDS011;22738;45.560;9.434;2022-08-03T19:22:37;3.95;;;1.83;;
36787;SDS011;22738;45.560;9.434;2022-08-03T19:29:19;2.60;;;1.65;;
36787;SDS011;22738;45.560;9.434;2022-08-03T19:36:02;1.95;;;1.60;;
36787;SDS011;22738;45.560;9.434;2022-08-03T19:42:44;3.55;;;1.65;;
36787;SDS011;22738;45.560;9.434;2022-08-03T19:49:32;2.53;;;1.60;;
36787;SDS011;22738;45.560;9.434;2022-08-03T19:56:20;5.18;;;2.25;;
36787;SDS011;22738;45.560;9.434;2022-08-03T20:03:06;2.83;;;1.92;;
36787;SDS011;22738;45.560;9.434;2022-08-03T20:09:47;7.78;;;2.40;;
36787;SDS011;22738;45.560;9.434;2022-08-03T20:16:28;4.50;;;2.10;;
36787;SDS011;22738;45.560;9.434;2022-08-03T20:23:10;3.15;;;1.80;;
36787;SDS011;22738;45.560;9.434;2022-08-03T20:29:55;2.72;;;1.83;;
36787;SDS011;22738;45.560;9.434;2022-08-03T20:36:38;3.27;;;2.07;;
36787;SDS011;22738;45.560;9.434;2022-08-03T20:43:20;2.42;;;1.60;;
36787;SDS011;22738;45.560;9.434;2022-08-03T20:50:03;3.45;;;2.03;;
36787;SDS011;22738;45.560;9.434;2022-08-03T20:56:44;2.38;;;1.75;;
36787;SDS011;22738;45.560;9.434;2022-08-03T21:03:25;6.50;;;2.47;;
36787;SDS011;22738;45.560;9.434;2022-08-03T21:10:06;2.75;;;2.30;;
36787;SDS011;22738;45.560;9.434;2022-08-03T21:16:49;4.25;;;2.38;;
36787;SDS011;22738;45.560;9.434;2022-08-03T21:23:31;3.35;;;2.58;;
36787;SDS011;22738;45.560;9.434;2022-08-03T21:36:55;4.07;;;2.30;;
36787;SDS011;22738;45.560;9.434;2022-08-03T21:43:38;4.65;;;2.42;;
36787;SDS011;22738;45.560;9.434;2022-08-03T21:50:19;6.15;;;2.83;;
36787;SDS011;22738;45.560;9.434;2022-08-03T21:57:02;4.60;;;2.83;;
36787;SDS011;22738;45.560;9.434;2022-08-03T22:03:44;4.60;;;2.58;;
36787;SDS011;22738;45.560;9.434;2022-08-03T22:10:26;6.05;;;2.75;;
36787;SDS011;22738;45.560;9.434;2022-08-03T22:17:08;4.75;;;3.10;;
36787;SDS011;22738;45.560;9.434;2022-08-03T22:23:49;7.55;;;3.28;;
36787;SDS011;22738;45.560;9.434;2022-08-03T22:30:35;4.35;;;3.08;;
36787;SDS011;22738;45.560;9.434;2022-08-03T22:37:18;7.78;;;3.35;;
36787;SDS011;22738;45.560;9.434;2022-08-03T22:44:00;5.53;;;3.60;;
36787;SDS011;22738;45.560;9.434;2022-08-03T22:50:42;6.10;;;3.53;;
36787;SDS011;22738;45.560;9.434;2022-08-03T22:57:24;6.32;;;4.53;;
36787;SDS011;22738;45.560;9.434;2022-08-03T23:04:05;8.52;;;4.47;;
36787;SDS011;22738;45.560;9.434;2022-08-03T23:10:46;7.05;;;3.80;;
36787;SDS011;22738;45.560;9.434;2022-08-03T23:17:30;8.20;;;4.67;;
36787;SDS011;22738;45.560;9.434;2022-08-03T23:24:12;7.40;;;3.38;;
36787;SDS011;22738;45.560;9.434;2022-08-03T23:30:53;5.47;;;3.60;;
36787;SDS011;22738;45.560;9.434;2022-08-03T23:37:35;6.90;;;3.50;;
36787;SDS011;22738;45.560;9.434;2022-08-03T23:44:18;4.78;;;3.13;;
36787;SDS011;22738;45.560;9.434;2022-08-03T23:51:09;8.32;;;3.40;;
36787;SDS011;22738;45.560;9.434;2022-08-03T23:58:17;4.38;;;3.20;;
